sensor_id;sensor_type;location;lat;lon;timestamp;P1;durP1;ratioP1;P2;durP2;ratioP2
76593;SDS011;65482;50.240;14.302;2023-06-14T00:00:42;16.38;;;8.98;;
76593;SDS011;65482;50.240;14.302;2023-06-14T00:03:29;11.90;;;7.65;;
76593;SDS011;65482;50.240;14.302;2023-06-14T00:05:57;11.65;;;7.00;;
76593;SDS011;65482;50.240;14.302;2023-06-14T00:08:22;9.00;;;6.28;;
76593;SDS011;65482;50.240;14.302;2023-06-14T00:10:49;10.18;;;5.90;;
76593;SDS011;65482;50.240;14.302;2023-06-14T00:13:15;8.27;;;5.97;;
76593;SDS011;65482;50.240;14.302;2023-06-14T00:15:41;7.45;;;5.78;;
76593;SDS011;65482;50.240;14.302;2023-06-14T00:18:08;7.65;;;5.50;;
76593;SDS011;65482;50.240;14.302;2023-06-14T00:20:34;6.78;;;6.05;;
76593;SDS011;65482;50.240;14.302;2023-06-14T00:23:00;9.85;;;5.63;;
76593;SDS011;65482;50.240;14.302;2023-06-14T00:25:26;8.38;;;6.00;;
76593;SDS011;65482;50.240;14.302;2023-06-14T00:27:53;7.60;;;5.45;;
76593;SDS011;65482;50.240;14.302;2023-06-14T00:30:22;7.55;;;5.60;;
76593;SDS011;65482;50.240;14.302;2023-06-14T00:32:48;8.13;;;5.70;;
76593;SDS011;65482;50.240;14.302;2023-06-14T00:35:14;8.52;;;6.15;;
76593;SDS011;65482;50.240;14.302;2023-06-14T00:37:40;7.90;;;5.28;;
76593;SDS011;65482;50.240;14.302;2023-06-14T00:40:06;6.25;;;5.50;;
76593;SDS011;65482;50.240;14.302;2023-06-14T00:42:32;6.88;;;5.28;;
76593;SDS011;65482;50.240;14.302;2023-06-14T00:44:59;7.63;;;5.50;;
76593;SDS011;65482;50.240;14.302;2023-06-14T00:47:25;7.35;;;5.78;;
76593;SDS011;65482;50.240;14.302;2023-06-14T00:49:52;5.95;;;5.35;;
76593;SDS011;65482;50.240;14.302;2023-06-14T00:52:19;6.82;;;5.25;;
76593;SDS011;65482;50.240;14.302;2023-06-14T00:54:44;6.15;;;4.82;;
76593;SDS011;65482;50.240;14.302;2023-06-14T00:57:10;8.88;;;6.00;;
76593;SDS011;65482;50.240;14.302;2023-06-14T00:59:43;8.38;;;5.25;;
76593;SDS011;65482;50.240;14.302;2023-06-14T01:02:14;9.07;;;5.72;;
76593;SDS011;65482;50.240;14.302;2023-06-14T01:04:40;6.28;;;5.57;;
76593;SDS011;65482;50.240;14.302;2023-06-14T01:15:27;6.68;;;5.13;;
76593;SDS011;65482;50.240;14.302;2023-06-14T01:17:55;8.13;;;5.32;;
76593;SDS011;65482;50.240;14.302;2023-06-14T01:20:22;7.95;;;5.38;;
76593;SDS011;65482;50.240;14.302;2023-06-14T01:22:54;7.57;;;5.45;;
76593;SDS011;65482;50.240;14.302;2023-06-14T01:25:20;6.80;;;5.60;;
76593;SDS011;65482;50.240;14.302;2023-06-14T01:27:48;8.07;;;5.97;;
76593;SDS011;65482;50.240;14.302;2023-06-14T01:30:16;10.68;;;5.93;;
76593;SDS011;65482;50.240;14.302;2023-06-14T01:32:42;9.23;;;6.15;;
76593;SDS011;65482;50.240;14.302;2023-06-14T01:35:08;9.98;;;5.90;;
76593;SDS011;65482;50.240;14.302;2023-06-14T01:37:34;8.07;;;6.47;;
76593;SDS011;65482;50.240;14.302;2023-06-14T01:40:02;7.53;;;5.75;;
76593;SDS011;65482;50.240;14.302;2023-06-14T01:42:32;10.27;;;5.90;;
76593;SDS011;65482;50.240;14.302;2023-06-14T01:45:00;13.05;;;6.70;;
76593;SDS011;65482;50.240;14.302;2023-06-14T01:47:27;8.50;;;6.05;;
76593;SDS011;65482;50.240;14.302;2023-06-14T01:49:53;8.93;;;6.32;;
76593;SDS011;65482;50.240;14.302;2023-06-14T01:52:19;8.35;;;6.78;;
76593;SDS011;65482;50.240;14.302;2023-06-14T01:54:44;14.70;;;6.68;;
76593;SDS011;65482;50.240;14.302;2023-06-14T01:57:11;10.15;;;6.95;;
76593;SDS011;65482;50.240;14.302;2023-06-14T01:59:37;7.80;;;6.47;;
76593;SDS011;65482;50.240;14.302;2023-06-14T02:02:03;12.57;;;6.20;;
76593;SDS011;65482;50.240;14.302;2023-06-14T02:04:28;10.38;;;6.65;;
76593;SDS011;65482;50.240;14.302;2023-06-14T02:06:54;9.95;;;6.47;;
76593;SDS011;65482;50.240;14.302;2023-06-14T02:09:20;8.88;;;6.35;;
76593;SDS011;65482;50.240;14.302;2023-06-14T02:11:45;9.55;;;6.53;;
76593;SDS011;65482;50.240;14.302;2023-06-14T02:14:11;7.55;;;5.90;;
76593;SDS011;65482;50.240;14.302;2023-06-14T02:16:37;9.77;;;6.65;;
76593;SDS011;65482;50.240;14.302;2023-06-14T02:19:04;11.48;;;6.32;;
76593;SDS011;65482;50.240;14.302;2023-06-14T02:21:30;7.43;;;6.47;;
76593;SDS011;65482;50.240;14.302;2023-06-14T02:23:56;7.32;;;6.18;;
76593;SDS011;65482;50.240;14.302;2023-06-14T02:26:21;7.45;;;6.63;;
76593;SDS011;65482;50.240;14.302;2023-06-14T02:28:50;8.15;;;6.60;;
76593;SDS011;65482;50.240;14.302;2023-06-14T02:31:16;10.23;;;6.70;;
76593;SDS011;65482;50.240;14.302;2023-06-14T02:33:41;10.32;;;6.93;;
76593;SDS011;65482;50.240;14.302;2023-06-14T02:36:07;10.13;;;6.57;;
76593;SDS011;65482;50.240;14.302;2023-06-14T02:38:33;10.82;;;6.63;;
76593;SDS011;65482;50.240;14.302;2023-06-14T02:40:58;10.05;;;6.88;;
76593;SDS011;65482;50.240;14.302;2023-06-14T02:43:25;10.20;;;6.55;;
76593;SDS011;65482;50.240;14.302;2023-06-14T02:45:51;11.68;;;7.20;;
76593;SDS011;65482;50.240;14.302;2023-06-14T02:48:17;9.55;;;7.40;;
76593;SDS011;65482;50.240;14.302;2023-06-14T02:50:42;9.38;;;6.50;;
76593;SDS011;65482;50.240;14.302;2023-06-14T02:53:08;10.27;;;6.90;;
76593;SDS011;65482;50.240;14.302;2023-06-14T02:55:34;7.82;;;6.53;;
76593;SDS011;65482;50.240;14.302;2023-06-14T02:58:04;15.75;;;6.63;;
76593;SDS011;65482;50.240;14.302;2023-06-14T03:00:30;8.75;;;6.53;;
76593;SDS011;65482;50.240;14.302;2023-06-14T03:02:56;8.35;;;6.75;;
76593;SDS011;65482;50.240;14.302;2023-06-14T03:05:22;9.10;;;6.60;;
76593;SDS011;65482;50.240;14.302;2023-06-14T03:07:48;8.50;;;6.55;;
76593;SDS011;65482;50.240;14.302;2023-06-14T03:10:15;11.95;;;6.68;;
76593;SDS011;65482;50.240;14.302;2023-06-14T03:12:41;7.82;;;6.45;;
76593;SDS011;65482;50.240;14.302;2023-06-14T03:15:07;8.25;;;6.50;;
76593;SDS011;65482;50.240;14.302;2023-06-14T03:17:33;10.55;;;7.15;;
76593;SDS011;65482;50.240;14.302;2023-06-14T03:20:00;9.75;;;7.18;;
76593;SDS011;65482;50.240;14.302;2023-06-14T03:22:26;8.35;;;6.43;;
76593;SDS011;65482;50.240;14.302;2023-06-14T03:24:52;8.13;;;7.05;;
76593;SDS011;65482;50.240;14.302;2023-06-14T03:27:19;9.05;;;6.95;;
76593;SDS011;65482;50.240;14.302;2023-06-14T03:29:45;9.45;;;6.72;;
76593;SDS011;65482;50.240;14.302;2023-06-14T03:32:10;13.00;;;6.72;;
76593;SDS011;65482;50.240;14.302;2023-06-14T03:34:36;8.90;;;6.57;;
76593;SDS011;65482;50.240;14.302;2023-06-14T03:37:04;9.40;;;6.57;;
76593;SDS011;65482;50.240;14.302;2023-06-14T03:39:30;13.20;;;7.10;;
76593;SDS011;65482;50.240;14.302;2023-06-14T03:41:56;11.55;;;6.45;;
76593;SDS011;65482;50.240;14.302;2023-06-14T03:44:22;10.27;;;6.18;;
76593;SDS011;65482;50.240;14.302;2023-06-14T03:46:47;8.55;;;6.68;;
76593;SDS011;65482;50.240;14.302;2023-06-14T03:49:13;7.70;;;6.88;;
76593;SDS011;65482;50.240;14.302;2023-06-14T03:51:39;11.77;;;6.90;;
76593;SDS011;65482;50.240;14.302;2023-06-14T03:54:07;9.32;;;6.60;;
76593;SDS011;65482;50.240;14.302;2023-06-14T03:56:33;7.07;;;5.57;;
76593;SDS011;65482;50.240;14.302;2023-06-14T03:58:59;8.85;;;5.85;;
76593;SDS011;65482;50.240;14.302;2023-06-14T04:01:24;15.52;;;7.60;;
76593;SDS011;65482;50.240;14.302;2023-06-14T04:03:55;9.40;;;5.70;;
76593;SDS011;65482;50.240;14.302;2023-06-14T04:06:22;7.45;;;6.13;;
76593;SDS011;65482;50.240;14.302;2023-06-14T04:08:50;7.38;;;5.97;;
76593;SDS011;65482;50.240;14.302;2023-06-14T04:11:17;8.43;;;5.90;;
76593;SDS011;65482;50.240;14.302;2023-06-14T04:13:43;6.75;;;5.57;;
76593;SDS011;65482;50.240;14.302;2023-06-14T04:16:09;10.98;;;5.75;;
76593;SDS011;65482;50.240;14.302;2023-06-14T04:18:35;9.85;;;6.30;;
76593;SDS011;65482;50.240;14.302;2023-06-14T04:21:00;9.93;;;5.88;;
76593;SDS011;65482;50.240;14.302;2023-06-14T04:23:26;9.18;;;6.00;;
76593;SDS011;65482;50.240;14.302;2023-06-14T04:25:53;8.00;;;5.90;;
76593;SDS011;65482;50.240;14.302;2023-06-14T04:28:19;11.38;;;6.45;;
76593;SDS011;65482;50.240;14.302;2023-06-14T04:30:44;7.18;;;5.95;;
76593;SDS011;65482;50.240;14.302;2023-06-14T04:33:12;11.63;;;7.03;;
76593;SDS011;65482;50.240;14.302;2023-06-14T04:35:43;9.00;;;5.88;;
76593;SDS011;65482;50.240;14.302;2023-06-14T04:38:12;11.57;;;6.50;;
76593;SDS011;65482;50.240;14.302;2023-06-14T04:40:38;10.25;;;6.50;;
76593;SDS011;65482;50.240;14.302;2023-06-14T04:43:08;10.07;;;6.35;;
76593;SDS011;65482;50.240;14.302;2023-06-14T04:45:37;9.82;;;6.57;;
76593;SDS011;65482;50.240;14.302;2023-06-14T04:48:05;8.90;;;6.85;;
76593;SDS011;65482;50.240;14.302;2023-06-14T04:50:31;8.75;;;6.75;;
76593;SDS011;65482;50.240;14.302;2023-06-14T04:52:58;9.77;;;6.75;;
76593;SDS011;65482;50.240;14.302;2023-06-14T04:55:24;9.55;;;6.95;;
76593;SDS011;65482;50.240;14.302;2023-06-14T04:57:51;11.30;;;6.80;;
76593;SDS011;65482;50.240;14.302;2023-06-14T05:00:19;10.10;;;6.72;;
76593;SDS011;65482;50.240;14.302;2023-06-14T05:02:45;9.30;;;6.70;;
76593;SDS011;65482;50.240;14.302;2023-06-14T05:05:12;9.45;;;7.05;;
76593;SDS011;65482;50.240;14.302;2023-06-14T05:07:38;10.65;;;7.00;;
76593;SDS011;65482;50.240;14.302;2023-06-14T05:10:04;8.38;;;7.25;;
76593;SDS011;65482;50.240;14.302;2023-06-14T05:12:31;10.18;;;7.00;;
76593;SDS011;65482;50.240;14.302;2023-06-14T05:14:56;9.40;;;6.45;;
76593;SDS011;65482;50.240;14.302;2023-06-14T05:17:24;11.15;;;6.82;;
76593;SDS011;65482;50.240;14.302;2023-06-14T05:19:50;8.85;;;6.65;;
76593;SDS011;65482;50.240;14.302;2023-06-14T05:22:16;10.13;;;7.63;;
76593;SDS011;65482;50.240;14.302;2023-06-14T05:24:41;8.05;;;7.03;;
76593;SDS011;65482;50.240;14.302;2023-06-14T05:27:07;11.45;;;7.72;;
76593;SDS011;65482;50.240;14.302;2023-06-14T05:29:33;14.43;;;6.85;;
76593;SDS011;65482;50.240;14.302;2023-06-14T05:31:59;10.43;;;6.93;;
76593;SDS011;65482;50.240;14.302;2023-06-14T05:34:25;9.38;;;6.97;;
76593;SDS011;65482;50.240;14.302;2023-06-14T05:36:50;12.10;;;7.60;;
76593;SDS011;65482;50.240;14.302;2023-06-14T05:39:16;12.20;;;7.53;;
76593;SDS011;65482;50.240;14.302;2023-06-14T05:41:42;10.77;;;6.70;;
76593;SDS011;65482;50.240;14.302;2023-06-14T05:44:11;10.90;;;6.60;;
76593;SDS011;65482;50.240;14.302;2023-06-14T05:46:40;8.38;;;7.05;;
76593;SDS011;65482;50.240;14.302;2023-06-14T05:49:13;10.45;;;7.75;;
76593;SDS011;65482;50.240;14.302;2023-06-14T05:51:46;8.50;;;6.95;;
76593;SDS011;65482;50.240;14.302;2023-06-14T05:54:15;10.13;;;7.00;;
76593;SDS011;65482;50.240;14.302;2023-06-14T05:56:45;20.63;;;7.85;;
76593;SDS011;65482;50.240;14.302;2023-06-14T05:59:11;12.48;;;7.60;;
76593;SDS011;65482;50.240;14.302;2023-06-14T06:01:40;13.40;;;7.47;;
76593;SDS011;65482;50.240;14.302;2023-06-14T06:04:07;14.90;;;6.97;;
76593;SDS011;65482;50.240;14.302;2023-06-14T06:06:34;11.07;;;6.93;;
76593;SDS011;65482;50.240;14.302;2023-06-14T06:09:01;9.38;;;7.32;;
76593;SDS011;65482;50.240;14.302;2023-06-14T06:11:28;10.88;;;6.68;;
76593;SDS011;65482;50.240;14.302;2023-06-14T06:13:54;6.57;;;5.32;;
76593;SDS011;65482;50.240;14.302;2023-06-14T06:16:20;6.90;;;5.05;;
76593;SDS011;65482;50.240;14.302;2023-06-14T06:18:57;9.18;;;5.38;;
76593;SDS011;65482;50.240;14.302;2023-06-14T06:21:25;6.93;;;5.25;;
76593;SDS011;65482;50.240;14.302;2023-06-14T06:23:51;7.55;;;4.72;;
76593;SDS011;65482;50.240;14.302;2023-06-14T06:26:17;7.72;;;5.13;;
76593;SDS011;65482;50.240;14.302;2023-06-14T06:28:43;8.05;;;4.30;;
76593;SDS011;65482;50.240;14.302;2023-06-14T06:31:09;7.03;;;4.20;;
76593;SDS011;65482;50.240;14.302;2023-06-14T06:33:36;5.78;;;4.32;;
76593;SDS011;65482;50.240;14.302;2023-06-14T06:36:02;8.23;;;4.20;;
76593;SDS011;65482;50.240;14.302;2023-06-14T06:38:29;5.95;;;4.35;;
76593;SDS011;65482;50.240;14.302;2023-06-14T06:40:55;5.30;;;4.10;;
76593;SDS011;65482;50.240;14.302;2023-06-14T06:43:22;6.25;;;4.45;;
76593;SDS011;65482;50.240;14.302;2023-06-14T06:45:48;7.38;;;4.40;;
76593;SDS011;65482;50.240;14.302;2023-06-14T06:48:13;8.70;;;4.20;;
76593;SDS011;65482;50.240;14.302;2023-06-14T06:50:41;6.88;;;4.55;;
76593;SDS011;65482;50.240;14.302;2023-06-14T06:53:07;6.13;;;4.53;;
76593;SDS011;65482;50.240;14.302;2023-06-14T06:55:40;7.10;;;4.30;;
76593;SDS011;65482;50.240;14.302;2023-06-14T06:58:17;5.75;;;4.50;;
76593;SDS011;65482;50.240;14.302;2023-06-14T07:00:43;6.03;;;4.32;;
76593;SDS011;65482;50.240;14.302;2023-06-14T07:03:12;7.72;;;4.20;;
76593;SDS011;65482;50.240;14.302;2023-06-14T07:05:38;5.75;;;4.43;;
76593;SDS011;65482;50.240;14.302;2023-06-14T07:08:03;7.00;;;4.95;;
76593;SDS011;65482;50.240;14.302;2023-06-14T07:10:29;7.60;;;4.90;;
76593;SDS011;65482;50.240;14.302;2023-06-14T07:12:56;5.60;;;4.50;;
76593;SDS011;65482;50.240;14.302;2023-06-14T07:15:21;8.05;;;4.38;;
76593;SDS011;65482;50.240;14.302;2023-06-14T07:17:50;10.27;;;4.82;;
76593;SDS011;65482;50.240;14.302;2023-06-14T07:20:19;7.25;;;4.18;;
76593;SDS011;65482;50.240;14.302;2023-06-14T07:26:02;6.22;;;4.03;;
76593;SDS011;65482;50.240;14.302;2023-06-14T07:28:39;4.55;;;3.83;;
76593;SDS011;65482;50.240;14.302;2023-06-14T07:31:09;8.07;;;3.92;;
76593;SDS011;65482;50.240;14.302;2023-06-14T07:34:16;7.38;;;3.92;;
76593;SDS011;65482;50.240;14.302;2023-06-14T07:37:25;7.13;;;3.83;;
76593;SDS011;65482;50.240;14.302;2023-06-14T07:40:07;5.43;;;3.72;;
76593;SDS011;65482;50.240;14.302;2023-06-14T07:42:35;5.82;;;3.45;;
76593;SDS011;65482;50.240;14.302;2023-06-14T07:45:02;6.35;;;3.65;;
76593;SDS011;65482;50.240;14.302;2023-06-14T07:47:29;6.40;;;3.30;;
76593;SDS011;65482;50.240;14.302;2023-06-14T07:50:02;5.18;;;3.00;;
76593;SDS011;65482;50.240;14.302;2023-06-14T07:52:36;4.30;;;3.55;;
76593;SDS011;65482;50.240;14.302;2023-06-14T07:55:03;6.07;;;3.58;;
76593;SDS011;65482;50.240;14.302;2023-06-14T07:57:37;9.10;;;3.50;;
76593;SDS011;65482;50.240;14.302;2023-06-14T08:00:04;4.20;;;3.47;;
76593;SDS011;65482;50.240;14.302;2023-06-14T08:02:36;4.57;;;3.25;;
76593;SDS011;65482;50.240;14.302;2023-06-14T08:05:01;6.28;;;3.50;;
76593;SDS011;65482;50.240;14.302;2023-06-14T08:07:27;4.97;;;3.40;;
76593;SDS011;65482;50.240;14.302;2023-06-14T08:09:58;6.45;;;3.53;;
76593;SDS011;65482;50.240;14.302;2023-06-14T08:12:24;5.30;;;3.45;;
76593;SDS011;65482;50.240;14.302;2023-06-14T08:14:52;6.10;;;3.40;;
76593;SDS011;65482;50.240;14.302;2023-06-14T08:17:21;5.00;;;2.92;;
76593;SDS011;65482;50.240;14.302;2023-06-14T08:19:47;12.65;;;2.80;;
76593;SDS011;65482;50.240;14.302;2023-06-14T08:22:12;14.57;;;2.90;;
76593;SDS011;65482;50.240;14.302;2023-06-14T08:24:38;8.80;;;3.53;;
76593;SDS011;65482;50.240;14.302;2023-06-14T08:27:05;10.25;;;3.47;;
76593;SDS011;65482;50.240;14.302;2023-06-14T08:29:31;19.10;;;2.90;;
76593;SDS011;65482;50.240;14.302;2023-06-14T08:31:57;8.38;;;2.83;;
76593;SDS011;65482;50.240;14.302;2023-06-14T08:34:23;8.40;;;3.25;;
76593;SDS011;65482;50.240;14.302;2023-06-14T08:36:52;10.95;;;3.22;;
76593;SDS011;65482;50.240;14.302;2023-06-14T08:39:17;4.57;;;3.75;;
76593;SDS011;65482;50.240;14.302;2023-06-14T08:41:46;11.90;;;3.13;;
76593;SDS011;65482;50.240;14.302;2023-06-14T08:44:15;7.00;;;3.65;;
76593;SDS011;65482;50.240;14.302;2023-06-14T08:46:41;7.00;;;3.70;;
76593;SDS011;65482;50.240;14.302;2023-06-14T08:49:11;4.55;;;3.20;;
76593;SDS011;65482;50.240;14.302;2023-06-14T08:51:37;4.25;;;3.00;;
76593;SDS011;65482;50.240;14.302;2023-06-14T08:54:03;4.95;;;3.60;;
76593;SDS011;65482;50.240;14.302;2023-06-14T08:56:39;6.22;;;3.47;;
76593;SDS011;65482;50.240;14.302;2023-06-14T08:59:16;4.90;;;3.95;;
76593;SDS011;65482;50.240;14.302;2023-06-14T09:01:43;7.47;;;3.45;;
76593;SDS011;65482;50.240;14.302;2023-06-14T09:04:13;5.80;;;3.17;;
76593;SDS011;65482;50.240;14.302;2023-06-14T09:06:42;7.38;;;3.42;;
76593;SDS011;65482;50.240;14.302;2023-06-14T09:09:12;3.33;;;2.90;;
76593;SDS011;65482;50.240;14.302;2023-06-14T09:11:41;3.53;;;3.08;;
76593;SDS011;65482;50.240;14.302;2023-06-14T09:14:35;3.35;;;2.97;;
76593;SDS011;65482;50.240;14.302;2023-06-14T09:17:05;3.67;;;3.00;;
76593;SDS011;65482;50.240;14.302;2023-06-14T09:19:56;3.95;;;2.70;;
76593;SDS011;65482;50.240;14.302;2023-06-14T09:22:56;3.78;;;3.00;;
76593;SDS011;65482;50.240;14.302;2023-06-14T09:25:23;3.20;;;2.80;;
76593;SDS011;65482;50.240;14.302;2023-06-14T09:27:51;5.68;;;3.28;;
76593;SDS011;65482;50.240;14.302;2023-06-14T09:30:17;3.63;;;3.05;;
76593;SDS011;65482;50.240;14.302;2023-06-14T09:32:45;4.43;;;2.97;;
76593;SDS011;65482;50.240;14.302;2023-06-14T09:35:11;3.90;;;3.25;;
76593;SDS011;65482;50.240;14.302;2023-06-14T09:37:36;5.00;;;3.15;;
76593;SDS011;65482;50.240;14.302;2023-06-14T09:40:03;3.13;;;2.80;;
76593;SDS011;65482;50.240;14.302;2023-06-14T09:42:29;6.20;;;3.03;;
76593;SDS011;65482;50.240;14.302;2023-06-14T09:44:56;8.40;;;3.30;;
76593;SDS011;65482;50.240;14.302;2023-06-14T09:47:23;3.35;;;3.05;;
76593;SDS011;65482;50.240;14.302;2023-06-14T09:49:50;4.88;;;2.97;;
76593;SDS011;65482;50.240;14.302;2023-06-14T09:52:22;5.47;;;3.00;;
76593;SDS011;65482;50.240;14.302;2023-06-14T09:54:49;5.85;;;3.17;;
76593;SDS011;65482;50.240;14.302;2023-06-14T09:57:15;4.90;;;3.40;;
76593;SDS011;65482;50.240;14.302;2023-06-14T09:59:43;3.90;;;3.20;;
76593;SDS011;65482;50.240;14.302;2023-06-14T10:02:36;4.75;;;3.10;;
76593;SDS011;65482;50.240;14.302;2023-06-14T10:05:04;4.13;;;3.10;;
76593;SDS011;65482;50.240;14.302;2023-06-14T10:10:25;4.47;;;2.90;;
76593;SDS011;65482;50.240;14.302;2023-06-14T10:12:50;5.03;;;2.92;;
76593;SDS011;65482;50.240;14.302;2023-06-14T10:15:20;7.45;;;2.97;;
76593;SDS011;65482;50.240;14.302;2023-06-14T10:17:56;4.22;;;2.95;;
76593;SDS011;65482;50.240;14.302;2023-06-14T10:20:39;3.35;;;3.03;;
76593;SDS011;65482;50.240;14.302;2023-06-14T10:23:13;4.28;;;3.00;;
76593;SDS011;65482;50.240;14.302;2023-06-14T10:25:44;6.70;;;3.50;;
76593;SDS011;65482;50.240;14.302;2023-06-14T10:37:13;4.30;;;2.95;;
76593;SDS011;65482;50.240;14.302;2023-06-14T10:42:16;5.78;;;3.10;;
76593;SDS011;65482;50.240;14.302;2023-06-14T10:44:50;4.93;;;2.83;;
76593;SDS011;65482;50.240;14.302;2023-06-14T10:47:31;4.35;;;3.10;;
76593;SDS011;65482;50.240;14.302;2023-06-14T10:50:04;5.55;;;3.47;;
76593;SDS011;65482;50.240;14.302;2023-06-14T10:52:33;3.70;;;3.10;;
76593;SDS011;65482;50.240;14.302;2023-06-14T11:00:00;3.80;;;2.67;;
76593;SDS011;65482;50.240;14.302;2023-06-14T11:05:30;10.57;;;2.63;;
76593;SDS011;65482;50.240;14.302;2023-06-14T11:08:11;2.90;;;2.60;;
76593;SDS011;65482;50.240;14.302;2023-06-14T11:10:48;5.60;;;2.50;;
76593;SDS011;65482;50.240;14.302;2023-06-14T11:13:19;5.63;;;2.80;;
76593;SDS011;65482;50.240;14.302;2023-06-14T11:15:50;5.68;;;2.75;;
76593;SDS011;65482;50.240;14.302;2023-06-14T11:18:18;5.45;;;2.70;;
76593;SDS011;65482;50.240;14.302;2023-06-14T11:20:45;2.90;;;2.60;;
76593;SDS011;65482;50.240;14.302;2023-06-14T11:23:14;3.72;;;2.70;;
76593;SDS011;65482;50.240;14.302;2023-06-14T11:25:41;3.30;;;2.70;;
76593;SDS011;65482;50.240;14.302;2023-06-14T11:28:13;5.38;;;2.53;;
76593;SDS011;65482;50.240;14.302;2023-06-14T11:30:59;5.20;;;2.70;;
76593;SDS011;65482;50.240;14.302;2023-06-14T11:33:32;3.88;;;2.72;;
76593;SDS011;65482;50.240;14.302;2023-06-14T11:36:33;4.40;;;2.95;;
76593;SDS011;65482;50.240;14.302;2023-06-14T11:39:08;3.58;;;3.10;;
76593;SDS011;65482;50.240;14.302;2023-06-14T11:41:45;3.88;;;2.80;;
76593;SDS011;65482;50.240;14.302;2023-06-14T11:44:14;4.15;;;2.70;;
76593;SDS011;65482;50.240;14.302;2023-06-14T11:52:37;3.13;;;2.83;;
76593;SDS011;65482;50.240;14.302;2023-06-14T11:55:03;3.47;;;2.92;;
76593;SDS011;65482;50.240;14.302;2023-06-14T11:57:30;5.07;;;3.15;;
76593;SDS011;65482;50.240;14.302;2023-06-14T12:00:00;5.75;;;3.13;;
76593;SDS011;65482;50.240;14.302;2023-06-14T12:02:30;19.30;;;4.20;;
76593;SDS011;65482;50.240;14.302;2023-06-14T12:05:03;4.55;;;3.10;;
76593;SDS011;65482;50.240;14.302;2023-06-14T12:07:30;6.30;;;3.03;;
76593;SDS011;65482;50.240;14.302;2023-06-14T12:12:22;5.35;;;2.80;;
76593;SDS011;65482;50.240;14.302;2023-06-14T12:14:53;3.38;;;2.78;;
76593;SDS011;65482;50.240;14.302;2023-06-14T12:17:20;3.17;;;2.88;;
76593;SDS011;65482;50.240;14.302;2023-06-14T12:19:46;3.58;;;2.92;;
76593;SDS011;65482;50.240;14.302;2023-06-14T12:22:12;4.35;;;2.88;;
76593;SDS011;65482;50.240;14.302;2023-06-14T12:24:38;3.72;;;3.08;;
76593;SDS011;65482;50.240;14.302;2023-06-14T12:27:04;7.03;;;3.30;;
76593;SDS011;65482;50.240;14.302;2023-06-14T12:29:31;3.10;;;2.60;;
76593;SDS011;65482;50.240;14.302;2023-06-14T12:31:57;4.00;;;2.90;;
76593;SDS011;65482;50.240;14.302;2023-06-14T12:34:26;4.53;;;3.00;;
76593;SDS011;65482;50.240;14.302;2023-06-14T12:36:52;5.47;;;3.38;;
76593;SDS011;65482;50.240;14.302;2023-06-14T12:39:19;4.65;;;3.00;;
76593;SDS011;65482;50.240;14.302;2023-06-14T12:41:45;4.10;;;2.88;;
76593;SDS011;65482;50.240;14.302;2023-06-14T12:44:11;5.55;;;3.00;;
76593;SDS011;65482;50.240;14.302;2023-06-14T12:46:37;5.13;;;3.65;;
76593;SDS011;65482;50.240;14.302;2023-06-14T12:49:05;6.35;;;3.00;;
76593;SDS011;65482;50.240;14.302;2023-06-14T12:51:32;5.28;;;3.28;;
76593;SDS011;65482;50.240;14.302;2023-06-14T12:53:58;3.90;;;2.85;;
76593;SDS011;65482;50.240;14.302;2023-06-14T12:56:24;3.65;;;2.90;;
76593;SDS011;65482;50.240;14.302;2023-06-14T12:58:50;5.05;;;3.10;;
76593;SDS011;65482;50.240;14.302;2023-06-14T13:01:16;4.05;;;3.08;;
76593;SDS011;65482;50.240;14.302;2023-06-14T13:03:41;4.40;;;3.33;;
76593;SDS011;65482;50.240;14.302;2023-06-14T13:06:07;6.35;;;3.22;;
76593;SDS011;65482;50.240;14.302;2023-06-14T13:08:32;5.13;;;3.00;;
76593;SDS011;65482;50.240;14.302;2023-06-14T13:10:58;3.40;;;3.10;;
76593;SDS011;65482;50.240;14.302;2023-06-14T13:13:24;4.65;;;2.70;;
76593;SDS011;65482;50.240;14.302;2023-06-14T13:15:49;4.75;;;2.95;;
76593;SDS011;65482;50.240;14.302;2023-06-14T13:18:16;3.45;;;2.75;;
76593;SDS011;65482;50.240;14.302;2023-06-14T13:20:41;3.28;;;2.90;;
76593;SDS011;65482;50.240;14.302;2023-06-14T13:23:08;5.15;;;3.10;;
76593;SDS011;65482;50.240;14.302;2023-06-14T13:25:34;4.22;;;3.10;;
76593;SDS011;65482;50.240;14.302;2023-06-14T13:28:01;10.43;;;3.38;;
76593;SDS011;65482;50.240;14.302;2023-06-14T13:30:27;3.58;;;3.13;;
76593;SDS011;65482;50.240;14.302;2023-06-14T13:32:54;4.45;;;3.00;;
76593;SDS011;65482;50.240;14.302;2023-06-14T13:35:21;3.60;;;3.22;;
76593;SDS011;65482;50.240;14.302;2023-06-14T13:37:50;4.15;;;3.20;;
76593;SDS011;65482;50.240;14.302;2023-06-14T13:40:17;5.50;;;3.10;;
76593;SDS011;65482;50.240;14.302;2023-06-14T13:42:43;5.30;;;3.30;;
76593;SDS011;65482;50.240;14.302;2023-06-14T13:45:10;4.40;;;2.72;;
76593;SDS011;65482;50.240;14.302;2023-06-14T13:47:37;8.05;;;3.78;;
76593;SDS011;65482;50.240;14.302;2023-06-14T13:50:03;4.78;;;3.08;;
76593;SDS011;65482;50.240;14.302;2023-06-14T13:52:31;8.57;;;3.00;;
76593;SDS011;65482;50.240;14.302;2023-06-14T13:55:05;4.53;;;3.38;;
76593;SDS011;65482;50.240;14.302;2023-06-14T14:01:08;3.70;;;3.35;;
76593;SDS011;65482;50.240;14.302;2023-06-14T14:03:42;4.38;;;3.40;;
76593;SDS011;65482;50.240;14.302;2023-06-14T14:06:10;4.55;;;3.97;;
76593;SDS011;65482;50.240;14.302;2023-06-14T14:08:36;4.80;;;3.13;;
76593;SDS011;65482;50.240;14.302;2023-06-14T14:11:02;4.28;;;3.20;;
76593;SDS011;65482;50.240;14.302;2023-06-14T14:13:28;8.13;;;3.30;;
76593;SDS011;65482;50.240;14.302;2023-06-14T14:15:54;6.20;;;3.28;;
76593;SDS011;65482;50.240;14.302;2023-06-14T14:18:22;4.15;;;3.00;;
76593;SDS011;65482;50.240;14.302;2023-06-14T14:20:48;5.57;;;3.10;;
76593;SDS011;65482;50.240;14.302;2023-06-14T14:23:14;6.50;;;3.50;;
76593;SDS011;65482;50.240;14.302;2023-06-14T14:25:40;4.95;;;3.00;;
76593;SDS011;65482;50.240;14.302;2023-06-14T14:28:06;3.88;;;3.00;;
76593;SDS011;65482;50.240;14.302;2023-06-14T14:30:31;8.45;;;3.13;;
76593;SDS011;65482;50.240;14.302;2023-06-14T14:32:58;4.43;;;3.42;;
76593;SDS011;65482;50.240;14.302;2023-06-14T14:35:23;4.15;;;3.10;;
76593;SDS011;65482;50.240;14.302;2023-06-14T14:37:51;4.00;;;2.95;;
76593;SDS011;65482;50.240;14.302;2023-06-14T14:40:17;4.80;;;3.20;;
76593;SDS011;65482;50.240;14.302;2023-06-14T14:42:43;6.35;;;3.25;;
76593;SDS011;65482;50.240;14.302;2023-06-14T14:45:11;5.68;;;3.00;;
76593;SDS011;65482;50.240;14.302;2023-06-14T14:47:44;6.13;;;3.47;;
76593;SDS011;65482;50.240;14.302;2023-06-14T14:50:14;3.25;;;2.75;;
76593;SDS011;65482;50.240;14.302;2023-06-14T14:52:42;5.00;;;3.20;;
76593;SDS011;65482;50.240;14.302;2023-06-14T14:55:08;5.78;;;2.95;;
76593;SDS011;65482;50.240;14.302;2023-06-14T14:57:41;8.02;;;3.20;;
76593;SDS011;65482;50.240;14.302;2023-06-14T15:00:09;4.47;;;3.05;;
76593;SDS011;65482;50.240;14.302;2023-06-14T15:02:36;7.10;;;3.22;;
76593;SDS011;65482;50.240;14.302;2023-06-14T15:05:22;4.82;;;3.28;;
76593;SDS011;65482;50.240;14.302;2023-06-14T15:07:58;5.13;;;3.25;;
76593;SDS011;65482;50.240;14.302;2023-06-14T15:10:40;3.70;;;3.28;;
76593;SDS011;65482;50.240;14.302;2023-06-14T15:13:08;4.65;;;3.50;;
76593;SDS011;65482;50.240;14.302;2023-06-14T15:15:34;4.22;;;3.17;;
76593;SDS011;65482;50.240;14.302;2023-06-14T15:18:01;5.75;;;3.38;;
76593;SDS011;65482;50.240;14.302;2023-06-14T15:20:26;4.68;;;3.15;;
76593;SDS011;65482;50.240;14.302;2023-06-14T15:22:54;5.68;;;3.38;;